Time;durP1;ratioP1;P1;durP2;ratioP2;P2;SDS_P1;SDS_P2;PMS_P1;PMS_P2;Temp;Humidity;BMP_temperature;BMP_pressure;BME280_temperature;BME280_humidity;BME280_pressure;Samples;Min_cycle;Max_cycle;Signal;HPM_P1;HPM_P2
2022/04/27 00:00:19;;;;;;;7.30;3.40;;;8.30;68.10;;;;;;5114732;28;20516;-32
2022/04/27 00:02:45;;;;;;;6.35;3.20;;;8.30;68.30;;;;;;5116262;28;20020;-33
2022/04/27 00:05:11;;;;;;;4.35;2.85;;;8.30;68.30;;;;;;5115924;28;20023;-29
2022/04/27 00:07:37;;;;;;;4.82;2.97;;;8.30;68.40;;;;;;5115848;28;20024;-29
2022/04/27 00:10:04;;;;;;;4.90;2.60;;;8.30;68.40;;;;;;5115867;28;20026;-28
2022/04/27 00:12:30;;;;;;;3.97;2.40;;;8.20;68.30;;;;;;5114916;28;20433;-28
2022/04/27 00:14:56;;;;;;;4.93;2.38;;;8.20;68.40;;;;;;5115743;28;20094;-28
2022/04/27 00:17:21;;;;;;;3.92;2.40;;;8.30;68.40;;;;;;5115710;28;20471;-34
2022/04/27 00:19:47;;;;;;;5.18;2.38;;;8.30;68.40;;;;;;5113483;28;20118;-31
2022/04/27 00:22:13;;;;;;;6.50;2.63;;;8.30;68.40;;;;;;5115533;28;20450;-31
2022/04/27 00:24:39;;;;;;;4.10;2.42;;;8.30;68.30;;;;;;5115823;28;20020;-29
2022/04/27 00:27:05;;;;;;;7.43;2.70;;;8.20;68.30;;;;;;5115500;28;20077;-29
2022/04/27 00:29:31;;;;;;;2.90;2.25;;;8.20;68.30;;;;;;5114168;28;20032;-30
2022/04/27 00:31:57;;;;;;;8.85;3.00;;;8.20;68.30;;;;;;5115456;28;20024;-29
2022/04/27 00:34:22;;;;;;;6.57;2.67;;;8.20;68.40;;;;;;5115390;28;20035;-29
2022/04/27 00:36:48;;;;;;;5.85;2.67;;;8.20;68.40;;;;;;5115293;28;20111;-29
2022/04/27 00:39:14;;;;;;;4.13;2.38;;;8.10;68.40;;;;;;5115226;28;20031;-28
2022/04/27 00:41:58;;;;;;;4.53;2.45;;;8.10;68.40;;;;;;5115167;28;20020;-29
2022/04/27 00:44:27;;;;;;;4.22;2.45;;;8.10;68.50;;;;;;5115508;28;20047;-29
2022/04/27 00:46:53;;;;;;;3.97;2.17;;;8.10;69.10;;;;;;5113857;28;20100;-29
2022/04/27 00:49:19;;;;;;;3.70;2.53;;;8.10;68.60;;;;;;5115292;28;20057;-29
2022/04/27 00:51:45;;;;;;;5.75;2.30;;;8.10;68.60;;;;;;5115314;28;20425;-29
2022/04/27 00:54:12;;;;;;;4.47;2.35;;;8.10;68.60;;;;;;5115021;28;20024;-29
2022/04/27 00:56:39;;;;;;;3.08;2.40;;;8.10;68.60;;;;;;5114685;28;20047;-31
2022/04/27 00:59:04;;;;;;;6.10;2.75;;;8.10;68.60;;;;;;5114851;28;20028;-29
2022/04/27 01:01:30;;;;;;;7.63;2.72;;;8.10;68.60;;;;;;5114925;28;20356;-29
2022/04/27 01:03:56;;;;;;;4.78;2.40;;;8.10;68.60;;;;;;5114785;28;20471;-34
2022/04/27 01:06:22;;;;;;;4.50;2.40;;;8.10;68.60;;;;;;5114974;27;20429;-33
2022/04/27 01:08:49;;;;;;;4.00;2.80;;;8.10;68.70;;;;;;5114917;28;20015;-31
2022/04/27 01:11:15;;;;;;;4.95;2.70;;;8.10;68.70;;;;;;5114772;28;20028;-29
2022/04/27 01:13:41;;;;;;;6.72;3.20;;;8.10;68.80;;;;;;5114623;28;20051;-32
2022/04/27 01:16:07;;;;;;;3.38;2.53;;;8.00;68.80;;;;;;5115148;28;20036;-29
2022/04/27 01:18:34;;;;;;;4.95;2.92;;;8.00;68.80;;;;;;5114462;28;20027;-31
2022/04/27 01:21:01;;;;;;;4.82;2.70;;;8.00;68.90;;;;;;5114366;28;20019;-30
2022/04/27 01:23:27;;;;;;;4.80;2.65;;;8.00;68.90;;;;;;5114650;28;20027;-29
2022/04/27 01:25:55;;;;;;;7.93;3.08;;;8.00;68.90;;;;;;5114371;28;20045;-29
2022/04/27 01:28:23;;;;;;;4.18;2.50;;;8.00;68.90;;;;;;5114522;28;20157;-31
2022/04/27 01:30:57;;;;;;;5.30;2.45;;;8.00;69.00;;;;;;5113134;28;20028;-31
2022/04/27 01:33:24;;;;;;;4.10;2.50;;;8.00;69.10;;;;;;5114522;28;20106;-32
2022/04/27 01:35:49;;;;;;;4.88;2.85;;;8.00;69.00;;;;;;5114475;28;20475;-29
2022/04/27 01:38:16;;;;;;;4.60;2.67;;;8.00;69.10;;;;;;5114261;28;20023;-32
2022/04/27 01:40:42;;;;;;;4.07;2.90;;;8.00;69.10;;;;;;5114204;28;20451;-31
2022/04/27 01:43:08;;;;;;;5.63;3.33;;;7.90;69.10;;;;;;5114076;28;20157;-29
2022/04/27 01:45:33;;;;;;;6.20;3.10;;;7.90;69.20;;;;;;5114331;28;20023;-31
2022/04/27 01:47:59;;;;;;;4.88;2.95;;;7.90;69.40;;;;;;5114221;28;20490;-38
2022/04/27 01:50:25;;;;;;;6.28;2.72;;;7.80;69.40;;;;;;5114211;28;20038;-32
2022/04/27 01:55:35;;;;;;;4.85;3.20;;;7.80;69.70;;;;;;5114027;28;20062;-34
2022/04/27 01:58:01;;;;;;;6.45;3.25;;;7.70;69.70;;;;;;5113751;28;20114;-34
2022/04/27 02:00:27;;;;;;;4.68;3.05;;;7.70;69.70;;;;;;5114060;28;20034;-30
2022/04/27 02:02:52;;;;;;;5.85;3.00;;;7.70;69.80;;;;;;5112468;28;20036;-31
2022/04/27 02:05:18;;;;;;;4.15;2.88;;;7.70;69.90;;;;;;5113744;28;20023;-28
2022/04/27 02:07:43;;;;;;;4.88;3.20;;;7.70;69.90;;;;;;5113677;28;20080;-31
2022/04/27 02:10:10;;;;;;;4.53;2.80;;;7.60;70.00;;;;;;5113708;28;20357;-29
2022/04/27 02:12:35;;;;;;;5.32;3.20;;;7.60;70.10;;;;;;5113913;28;20076;-30
2022/04/27 02:15:02;;;;;;;6.25;3.05;;;7.60;70.10;;;;;;5113902;28;20019;-29
2022/04/27 02:17:27;;;;;;;6.97;3.13;;;7.60;70.20;;;;;;5113882;28;20048;-30
2022/04/27 02:19:53;;;;;;;6.55;2.83;;;7.60;70.20;;;;;;5113437;28;20137;-28
2022/04/27 02:22:19;;;;;;;8.85;3.13;;;7.60;70.30;;;;;;5113480;28;20024;-30
2022/04/27 02:24:44;;;;;;;5.18;3.15;;;7.60;70.40;;;;;;5113480;28;20030;-29
2022/04/27 02:27:10;;;;;;;5.45;3.50;;;7.60;70.40;;;;;;5113506;28;20018;-29
2022/04/27 02:29:36;;;;;;;5.40;3.03;;;7.60;70.50;;;;;;5113530;28;20475;-33
2022/04/27 02:32:02;;;;;;;5.07;3.50;;;7.60;70.50;;;;;;5113312;28;20407;-32
2022/04/27 02:34:27;;;;;;;9.77;3.97;;;7.60;70.60;;;;;;5113417;28;20082;-31
2022/04/27 02:36:53;;;;;;;4.53;3.20;;;7.60;70.60;;;;;;5113490;28;20491;-33
2022/04/27 02:39:19;;;;;;;5.75;2.95;;;7.60;70.60;;;;;;5113298;28;20016;-30
2022/04/27 02:41:44;;;;;;;5.35;3.03;;;7.60;70.70;;;;;;5113323;28;20410;-29
2022/04/27 02:44:10;;;;;;;5.18;3.10;;;7.60;70.70;;;;;;5117697;28;20077;-31
2022/04/27 02:46:37;;;;;;;6.30;3.55;;;7.60;70.70;;;;;;5117495;28;20476;-28
2022/04/27 02:51:53;;;;;;;4.95;3.10;;;7.60;70.90;;;;;;5117708;28;20114;-31
2022/04/27 02:54:21;;;;;;;4.53;2.83;;;7.60;70.90;;;;;;5117460;28;20062;-29
2022/04/27 02:56:48;;;;;;;5.47;3.03;;;7.60;70.90;;;;;;5117166;28;20571;-29
2022/04/27 02:59:15;;;;;;;3.78;2.72;;;7.50;70.90;;;;;;5117595;28;20359;-29
2022/04/27 03:01:41;;;;;;;5.53;3.28;;;7.50;71.00;;;;;;5117361;28;20016;-31
2022/04/27 03:04:07;;;;;;;6.82;3.42;;;7.50;71.70;;;;;;5117372;28;20503;-34
2022/04/27 03:06:33;;;;;;;5.45;3.60;;;7.50;71.10;;;;;;5116980;28;20024;-30
2022/04/27 03:08:59;;;;;;;3.67;2.83;;;7.50;71.30;;;;;;5117080;28;20447;-30
2022/04/27 03:11:25;;;;;;;7.80;3.08;;;7.40;71.20;;;;;;5117178;28;20027;-30
2022/04/27 03:13:50;;;;;;;5.53;2.97;;;7.40;71.30;;;;;;5117300;28;20035;-29
2022/04/27 03:16:16;;;;;;;6.63;3.72;;;7.40;71.30;;;;;;5117232;28;20073;-32
2022/04/27 03:18:42;;;;;;;5.47;3.22;;;7.40;71.40;;;;;;5116834;28;20019;-29
2022/04/27 03:21:12;;;;;;;5.88;3.20;;;7.40;71.40;;;;;;5117052;28;20044;-32
2022/04/27 03:23:38;;;;;;;5.80;3.55;;;7.40;71.50;;;;;;5116736;28;20020;-29
2022/04/27 03:26:04;;;;;;;4.95;3.10;;;7.40;71.40;;;;;;5116656;28;20080;-35
2022/04/27 03:28:29;;;;;;;4.63;3.35;;;7.40;71.50;;;;;;5115481;28;20047;-30
2022/04/27 03:30:55;;;;;;;6.63;3.53;;;7.40;71.50;;;;;;5116588;28;20059;-29
2022/04/27 03:33:21;;;;;;;5.93;3.03;;;7.30;71.50;;;;;;5116874;28;20020;-29
2022/04/27 03:35:47;;;;;;;5.15;3.03;;;7.30;71.60;;;;;;5116519;28;20016;-30
2022/04/27 03:38:14;;;;;;;5.80;3.30;;;7.30;71.70;;;;;;5116419;28;20028;-29
2022/04/27 03:40:41;;;;;;;7.38;3.10;;;7.30;71.80;;;;;;5116410;28;20018;-28
2022/04/27 03:43:08;;;;;;;4.53;3.30;;;7.20;71.70;;;;;;5116468;28;20076;-29
2022/04/27 03:45:35;;;;;;;6.20;3.35;;;7.30;71.80;;;;;;5116669;28;20084;-29
2022/04/27 03:48:01;;;;;;;6.85;3.45;;;7.20;71.80;;;;;;5116571;28;20043;-31
2022/04/27 03:50:26;;;;;;;5.93;3.50;;;7.20;71.70;;;;;;5115126;28;20023;-31
2022/04/27 03:52:52;;;;;;;7.63;3.53;;;7.20;71.80;;;;;;5116219;28;20081;-29
2022/04/27 03:55:17;;;;;;;5.63;3.40;;;7.20;71.90;;;;;;5115055;28;20020;-29
2022/04/27 03:57:43;;;;;;;5.55;3.25;;;7.10;71.90;;;;;;5116002;28;20474;-34
2022/04/27 04:00:10;;;;;;;4.97;3.00;;;7.10;72.00;;;;;;5116168;28;20024;-29
2022/04/27 04:02:37;;;;;;;7.80;3.33;;;7.10;72.00;;;;;;5116011;28;20028;-28
2022/04/27 04:05:04;;;;;;;6.68;3.33;;;7.00;72.10;;;;;;5115996;28;20179;-30
2022/04/27 04:07:29;;;;;;;6.22;3.13;;;7.00;72.10;;;;;;5116031;28;20024;-31
2022/04/27 04:09:55;;;;;;;7.90;3.50;;;7.00;72.10;;;;;;5114594;28;20026;-30
2022/04/27 04:12:21;;;;;;;8.00;3.45;;;6.90;72.70;;;;;;5114556;28;20111;-29
2022/04/27 04:14:47;;;;;;;4.72;3.25;;;6.90;72.10;;;;;;5116037;28;20028;-32
2022/04/27 04:17:12;;;;;;;4.75;3.30;;;6.90;72.20;;;;;;5116031;28;20019;-30
2022/04/27 04:19:39;;;;;;;7.85;3.58;;;6.90;72.20;;;;;;5115642;28;20020;-28
2022/04/27 04:22:05;;;;;;;6.65;3.17;;;6.90;72.30;;;;;;5115528;28;20040;-29
2022/04/27 04:24:31;;;;;;;5.85;3.53;;;6.80;72.30;;;;;;5115618;28;20479;-31
2022/04/27 04:29:41;;;;;;;5.93;3.33;;;6.80;72.60;;;;;;5115872;28;20034;-28
2022/04/27 04:32:07;;;;;;;6.68;3.53;;;6.80;72.60;;;;;;5115738;28;20031;-34
2022/04/27 04:34:33;;;;;;;5.50;3.08;;;6.70;72.60;;;;;;5115438;28;20115;-29
2022/04/27 04:36:58;;;;;;;4.18;2.97;;;6.70;72.70;;;;;;5115694;28;20098;-29
2022/04/27 04:39:24;;;;;;;5.00;2.95;;;6.70;72.80;;;;;;5115296;28;20028;-31
2022/04/27 04:41:50;;;;;;;6.13;3.35;;;6.70;72.80;;;;;;5115258;28;20083;-31
2022/04/27 04:44:15;;;;;;;7.55;3.38;;;6.70;72.80;;;;;;5115282;28;20122;-30
2022/04/27 04:46:41;;;;;;;5.45;2.92;;;6.70;72.80;;;;;;5115180;28;20383;-29
2022/04/27 04:49:07;;;;;;;6.65;3.40;;;6.70;72.90;;;;;;5115175;28;20370;-29
2022/04/27 04:51:33;;;;;;;5.57;3.40;;;6.70;72.80;;;;;;5115123;28;20119;-31
2022/04/27 04:53:59;;;;;;;6.00;3.40;;;6.80;72.90;;;;;;5113721;28;20502;-31
2022/04/27 04:56:24;;;;;;;5.65;3.20;;;6.80;72.90;;;;;;5114917;28;20092;-33
2022/04/27 04:58:50;;;;;;;4.30;3.15;;;6.80;72.90;;;;;;5114813;28;20035;-29
2022/04/27 05:01:15;;;;;;;9.32;3.35;;;6.80;72.80;;;;;;5114883;28;20020;-29
2022/04/27 05:03:41;;;;;;;7.20;3.72;;;6.90;72.90;;;;;;5115051;28;20020;-30
2022/04/27 05:06:07;;;;;;;4.47;3.35;;;6.90;72.80;;;;;;5114439;28;20045;-29
2022/04/27 05:08:32;;;;;;;5.82;3.20;;;6.90;72.70;;;;;;5114810;28;20081;-30
2022/04/27 05:10:58;;;;;;;5.90;3.30;;;7.00;72.80;;;;;;5115143;28;20507;-33
2022/04/27 05:13:24;;;;;;;5.05;3.47;;;7.10;72.80;;;;;;5114916;28;20058;-31
2022/04/27 05:15:50;;;;;;;5.30;3.30;;;7.10;72.80;;;;;;5114812;28;20024;-30
2022/04/27 05:18:17;;;;;;;5.05;3.20;;;7.10;72.80;;;;;;5114461;28;20042;-32
2022/04/27 05:20:43;;;;;;;8.45;3.42;;;7.10;72.70;;;;;;5114805;28;20466;-33
2022/04/27 05:23:11;;;;;;;6.78;3.20;;;7.20;72.70;;;;;;5114538;28;20076;-29
2022/04/27 05:25:37;;;;;;;5.55;3.40;;;7.20;72.70;;;;;;5114712;28;20530;-29
2022/04/27 05:28:03;;;;;;;7.13;4.07;;;7.20;72.60;;;;;;5114616;28;20104;-29
2022/04/27 05:33:13;;;;;;;7.68;3.58;;;7.30;72.50;;;;;;5114279;28;20065;-30
2022/04/27 05:35:40;;;;;;;9.43;4.10;;;7.40;72.50;;;;;;5113007;28;20110;-32
2022/04/27 05:38:05;;;;;;;4.75;3.13;;;7.40;73.10;;;;;;5114394;28;20081;-32
2022/04/27 05:40:31;;;;;;;6.93;3.55;;;7.40;72.40;;;;;;5114192;28;20551;-35
2022/04/27 05:42:57;;;;;;;7.72;3.38;;;7.50;72.50;;;;;;5114056;28;20027;-30
2022/04/27 05:45:23;;;;;;;5.75;3.38;;;7.50;72.50;;;;;;5114026;28;20031;-30
2022/04/27 05:47:49;;;;;;;6.15;3.40;;;7.60;72.40;;;;;;5114249;28;20027;-30
2022/04/27 05:50:15;;;;;;;8.23;3.25;;;7.60;72.30;;;;;;5113974;28;20403;-29
2022/04/27 05:52:52;;;;;;;3.80;2.83;;;7.70;72.30;;;;;;5113887;28;20027;-30
2022/04/27 05:55:19;;;;;;;4.32;3.03;;;7.80;72.30;;;;;;5113861;28;20394;-30
2022/04/27 05:57:44;;;;;;;5.80;3.03;;;7.90;72.20;;;;;;5114126;28;20038;-29
2022/04/27 06:00:11;;;;;;;5.70;2.92;;;7.90;72.10;;;;;;5113878;28;20130;-31
2022/04/27 06:02:38;;;;;;;5.03;2.85;;;8.00;72.10;;;;;;5113730;28;20027;-29
2022/04/27 06:05:04;;;;;;;4.35;2.83;;;8.10;72.00;;;;;;5114047;28;20019;-30
2022/04/27 06:07:30;;;;;;;2.80;2.50;;;8.20;71.90;;;;;;5113800;28;20081;-35
2022/04/27 06:09:56;;;;;;;6.18;2.97;;;8.20;71.80;;;;;;5113893;28;20031;-31
2022/04/27 06:12:24;;;;;;;4.10;2.75;;;8.30;71.80;;;;;;5113659;28;20425;-30
2022/04/27 06:14:50;;;;;;;4.82;2.80;;;8.40;71.70;;;;;;5113556;28;20024;-29
2022/04/27 06:17:16;;;;;;;4.30;2.65;;;8.40;71.50;;;;;;5112858;28;20114;-29
2022/04/27 06:19:41;;;;;;;6.03;3.22;;;8.50;71.40;;;;;;5113488;28;20390;-28
2022/04/27 06:22:07;;;;;;;5.88;3.20;;;8.60;71.40;;;;;;5113716;28;20031;-29
2022/04/27 06:24:32;;;;;;;6.13;3.20;;;8.60;71.20;;;;;;5113522;28;20360;-29
2022/04/27 06:26:58;;;;;;;3.85;2.80;;;8.70;71.20;;;;;;5113635;28;20023;-30
2022/04/27 06:29:24;;;;;;;5.07;3.05;;;8.70;71.00;;;;;;5113887;28;20076;-31
2022/04/27 06:31:49;;;;;;;5.88;3.38;;;8.80;71.00;;;;;;5112182;28;20076;-31
2022/04/27 06:34:15;;;;;;;6.68;3.08;;;8.80;70.80;;;;;;5113391;28;20118;-29
2022/04/27 06:36:40;;;;;;;4.70;3.00;;;8.90;70.80;;;;;;5113390;28;20024;-30
2022/04/27 06:39:08;;;;;;;6.78;2.88;;;8.90;70.70;;;;;;5113193;28;20115;-29
2022/04/27 06:41:33;;;;;;;5.93;3.30;;;9.00;70.60;;;;;;5113820;28;20106;-30
2022/04/27 06:43:59;;;;;;;6.55;3.15;;;9.00;70.50;;;;;;5113278;28;20482;-27
2022/04/27 06:46:24;;;;;;;3.85;3.15;;;9.10;70.40;;;;;;5113544;28;20479;-31
2022/04/27 06:48:50;;;;;;;5.72;3.00;;;9.10;70.30;;;;;;5113384;28;20076;-28
2022/04/27 06:51:18;;;;;;;7.00;3.50;;;9.10;70.20;;;;;;5113374;28;20085;-28
2022/04/27 06:53:44;;;;;;;6.72;3.50;;;9.20;70.80;;;;;;5113606;28;20027;-30
2022/04/27 06:56:10;;;;;;;4.47;2.72;;;9.30;70.20;;;;;;5113170;28;20047;-27
2022/04/27 06:58:35;;;;;;;3.70;2.83;;;9.30;70.00;;;;;;5113103;28;20080;-29
2022/04/27 07:01:03;;;;;;;6.57;2.90;;;9.30;69.90;;;;;;5113371;28;20027;-27
2022/04/27 07:03:32;;;;;;;6.43;3.00;;;9.40;69.80;;;;;;5113025;28;20024;-30
2022/04/27 07:05:57;;;;;;;3.35;2.70;;;9.50;69.70;;;;;;5113340;28;20038;-30
2022/04/27 07:08:24;;;;;;;6.35;3.20;;;9.50;69.50;;;;;;5113339;28;20401;-30
2022/04/27 07:10:50;;;;;;;6.85;3.38;;;9.60;69.40;;;;;;5113266;28;20039;-30
2022/04/27 07:13:15;;;;;;;4.07;2.58;;;9.60;69.30;;;;;;5113084;28;20471;-28
2022/04/27 07:15:41;;;;;;;5.63;3.05;;;9.70;69.20;;;;;;5113368;28;20084;-29
2022/04/27 07:18:07;;;;;;;6.32;2.85;;;9.70;69.10;;;;;;5113163;28;20023;-30
2022/04/27 07:20:33;;;;;;;4.50;3.30;;;9.80;69.00;;;;;;5112848;28;20024;-29
2022/04/27 07:22:58;;;;;;;8.23;3.10;;;9.80;68.90;;;;;;5112913;28;20031;-34
2022/04/27 07:25:24;;;;;;;5.32;2.70;;;9.90;68.90;;;;;;5112933;28;20073;-31
2022/04/27 07:27:49;;;;;;;6.07;2.90;;;9.90;68.80;;;;;;5113056;28;20035;-33
2022/04/27 07:30:15;;;;;;;5.55;2.90;;;10.00;68.70;;;;;;5116536;28;20027;-29
2022/04/27 07:32:41;;;;;;;5.28;3.15;;;10.00;68.50;;;;;;5116719;28;20441;-29
2022/04/27 07:35:08;;;;;;;5.30;3.10;;;10.10;68.40;;;;;;5116378;28;20034;-28
2022/04/27 07:37:37;;;;;;;6.00;3.47;;;10.10;68.30;;;;;;5116343;28;20023;-28
2022/04/27 07:40:04;;;;;;;5.55;3.00;;;10.10;68.10;;;;;;5116600;28;20028;-32
2022/04/27 07:42:29;;;;;;;7.00;2.70;;;10.10;67.90;;;;;;5116568;28;20039;-30
2022/04/27 07:44:55;;;;;;;4.28;2.63;;;10.20;67.70;;;;;;5116810;28;20054;-29
2022/04/27 07:47:20;;;;;;;5.47;2.92;;;10.30;67.50;;;;;;5116463;28;20016;-34
2022/04/27 07:49:47;;;;;;;4.50;3.05;;;10.30;67.20;;;;;;5116334;28;20023;-28
2022/04/27 07:52:13;;;;;;;5.50;3.00;;;10.40;67.00;;;;;;5116531;28;20072;-28
2022/04/27 07:54:41;;;;;;;5.13;2.58;;;10.50;66.80;;;;;;5116009;28;20106;-33
2022/04/27 07:57:07;;;;;;;3.97;1.95;;;10.50;66.50;;;;;;5115727;28;20114;-30
2022/04/27 07:59:32;;;;;;;2.45;1.83;;;10.60;66.10;;;;;;5115886;28;20189;-30
2022/04/27 08:01:58;;;;;;;3.75;2.00;;;10.80;65.80;;;;;;5116012;28;20068;-30
2022/04/27 08:04:23;;;;;;;4.28;2.33;;;10.90;65.50;;;;;;5115815;28;20031;-30
2022/04/27 08:06:50;;;;;;;8.15;2.35;;;11.00;65.10;;;;;;5114576;28;20024;-33
2022/04/27 08:09:16;;;;;;;4.32;2.28;;;11.00;64.80;;;;;;5115869;28;20024;-30
2022/04/27 08:11:42;;;;;;;6.20;2.33;;;11.10;64.50;;;;;;5116105;28;20028;-29
2022/04/27 08:14:08;;;;;;;4.43;2.20;;;11.20;64.30;;;;;;5115734;28;20023;-29
2022/04/27 08:16:34;;;;;;;3.75;2.67;;;11.30;64.10;;;;;;5116137;28;20090;-29
2022/04/27 08:18:59;;;;;;;6.32;2.53;;;11.40;63.90;;;;;;5115612;28;20063;-30
2022/04/27 08:21:27;;;;;;;2.60;2.40;;;11.50;63.60;;;;;;5115633;28;20024;-32
2022/04/27 08:23:53;;;;;;;3.78;2.30;;;11.70;63.30;;;;;;5115914;28;20026;-31
2022/04/27 08:26:19;;;;;;;2.55;2.03;;;11.80;63.00;;;;;;5115555;28;20031;-30
2022/04/27 08:28:48;;;;;;;4.53;1.98;;;12.00;62.70;;;;;;5115706;28;20023;-33
2022/04/27 08:31:17;;;;;;;2.90;1.67;;;12.10;62.40;;;;;;5115550;28;20055;-29
2022/04/27 08:33:43;;;;;;;3.15;1.85;;;12.30;62.20;;;;;;5115744;28;20073;-30
2022/04/27 08:36:08;;;;;;;2.20;1.80;;;12.50;61.90;;;;;;5115585;28;20028;-35
2022/04/27 08:38:35;;;;;;;3.53;2.00;;;12.60;61.30;;;;;;5113978;28;20046;-29
2022/04/27 08:41:01;;;;;;;3.05;1.70;;;12.70;61.10;;;;;;5114501;28;20525;-31
2022/04/27 08:43:27;;;;;;;3.40;1.70;;;12.90;60.90;;;;;;5115292;28;20016;-29
2022/04/27 08:45:54;;;;;;;4.07;1.90;;;13.00;60.40;;;;;;5114990;28;20019;-33
2022/04/27 08:48:21;;;;;;;4.45;2.00;;;13.10;60.00;;;;;;5114916;28;20088;-35
2022/04/27 08:50:48;;;;;;;3.85;1.75;;;13.20;59.80;;;;;;5114698;28;20058;-30
2022/04/27 08:53:14;;;;;;;4.50;2.08;;;13.30;59.60;;;;;;5115060;28;20035;-30
2022/04/27 08:55:40;;;;;;;2.67;1.60;;;13.50;59.40;;;;;;5114905;28;20048;-29
2022/04/27 08:58:16;;;;;;;2.45;1.75;;;13.50;59.00;;;;;;5114724;28;20029;-29
2022/04/27 09:00:44;;;;;;;4.65;1.92;;;13.60;58.80;;;;;;5114694;28;20020;-28
2022/04/27 09:03:32;;;;;;;6.82;2.83;;;13.60;58.70;;;;;;5114663;28;20027;-33
2022/04/27 09:06:11;;;;;;;4.05;2.75;;;13.70;58.20;;;;;;5114647;28;20522;-31
2022/04/27 09:08:47;;;;;;;3.72;1.80;;;13.70;58.00;;;;;;5114551;28;20103;-29
2022/04/27 09:11:17;;;;;;;3.83;1.70;;;13.70;58.10;;;;;;5114873;28;20016;-29
2022/04/27 09:13:53;;;;;;;3.83;1.70;;;13.70;58.00;;;;;;5114751;28;20023;-28
2022/04/27 09:16:25;;;;;;;4.07;1.95;;;13.70;57.80;;;;;;5114712;28;20077;-29
2022/04/27 09:21:56;;;;;;;3.05;1.77;;;13.80;57.40;;;;;;5094339;28;20028;-46
2022/04/27 09:24:22;;;;;;;4.38;1.92;;;13.90;57.20;;;;;;5114482;28;20028;-46
2022/04/27 09:27:09;;;;;;;2.90;1.90;;;14.00;57.00;;;;;;5114541;28;20379;-47
2022/04/27 09:29:35;;;;;;;5.20;1.90;;;14.00;56.80;;;;;;5114453;28;20035;-47
2022/04/27 09:32:03;;;;;;;3.25;1.85;;;13.90;56.80;;;;;;5114371;28;20027;-47
2022/04/27 09:34:29;;;;;;;3.97;1.92;;;13.90;56.70;;;;;;5114651;28;20020;-46
2022/04/27 09:37:11;;;;;;;4.25;1.70;;;13.80;56.70;;;;;;5114211;28;20474;-46
2022/04/27 09:39:37;;;;;;;3.92;1.70;;;13.70;56.50;;;;;;5114378;28;20110;-46
2022/04/27 09:42:04;;;;;;;2.80;1.90;;;13.70;56.70;;;;;;5114130;28;20483;-46
2022/04/27 09:44:35;;;;;;;4.93;1.70;;;13.60;56.30;;;;;;5113980;28;20016;-46
2022/04/27 09:47:03;;;;;;;5.10;1.67;;;13.70;56.50;;;;;;5113767;28;20058;-46
2022/04/27 09:49:29;;;;;;;2.63;1.55;;;13.60;56.50;;;;;;5114019;28;20019;-46
2022/04/27 09:51:56;;;;;;;1.80;1.67;;;13.60;56.50;;;;;;5113164;28;20020;-46
2022/04/27 09:54:26;;;;;;;4.47;1.70;;;13.70;56.50;;;;;;5113700;28;20019;-47
2022/04/27 09:56:55;;;;;;;3.72;2.00;;;13.70;56.20;;;;;;5112542;28;20031;-47
2022/04/27 09:59:26;;;;;;;2.75;1.80;;;13.70;56.10;;;;;;5113797;28;20031;-47
2022/04/27 10:01:53;;;;;;;2.90;1.70;;;13.70;56.00;;;;;;5112158;28;20020;-44
2022/04/27 10:04:21;;;;;;;5.47;1.77;;;13.80;55.90;;;;;;5113628;28;20483;-45
2022/04/27 10:06:48;;;;;;;4.35;1.88;;;13.80;55.50;;;;;;5113722;28;20090;-28
2022/04/27 10:09:13;;;;;;;3.03;1.70;;;13.90;55.40;;;;;;5113546;28;20028;-28
2022/04/27 10:11:41;;;;;;;2.38;1.55;;;14.00;55.10;;;;;;5113443;28;20030;-31
2022/04/27 10:14:07;;;;;;;4.30;1.58;;;14.20;54.80;;;;;;5113323;28;20096;-31
2022/04/27 10:16:34;;;;;;;3.10;1.70;;;14.30;54.50;;;;;;5113652;28;20098;-29
2022/04/27 10:19:00;;;;;;;3.33;1.67;;;14.50;54.40;;;;;;5113444;28;20035;-30
2022/04/27 10:24:43;;;;;;;1.77;1.30;;;14.90;53.70;;;;;;5113179;28;20380;-46
2022/04/27 10:27:15;;;;;;;2.30;1.80;;;15.10;53.50;;;;;;5113698;28;20035;-46
2022/04/27 10:29:41;;;;;;;2.55;2.00;;;15.30;53.30;;;;;;5113344;28;20027;-34
2022/04/27 10:32:07;;;;;;;3.55;1.70;;;15.40;53.40;;;;;;5113254;28;20072;-34
2022/04/27 10:34:33;;;;;;;3.90;2.30;;;15.50;53.30;;;;;;5113310;28;20019;-46
2022/04/27 10:37:05;;;;;;;2.30;1.63;;;15.50;52.40;;;;;;5113548;28;20027;-30
2022/04/27 10:39:34;;;;;;;4.20;1.90;;;15.50;52.80;;;;;;5113213;28;20065;-30
2022/04/27 10:42:03;;;;;;;2.63;1.63;;;15.40;52.60;;;;;;5112025;28;20038;-29
2022/04/27 10:48:20;;;;;;;24.15;14.00;;;15.10;52.40;;;;;;5113607;28;20065;-45
2022/04/27 10:51:02;;;;;;;10.75;6.82;;;14.90;52.00;;;;;;5113214;28;20080;-45
2022/04/27 10:53:39;;;;;;;6.32;4.25;;;14.70;52.20;;;;;;5113609;28;20058;-46
2022/04/27 10:56:23;;;;;;;7.10;3.13;;;14.60;52.40;;;;;;5112913;28;20036;-46
2022/04/27 10:58:49;;;;;;;5.40;2.80;;;14.50;52.60;;;;;;5113212;28;20031;-45
2022/04/27 11:01:18;;;;;;;4.05;2.35;;;14.50;52.70;;;;;;5113496;28;20501;-43
2022/04/27 11:03:52;;;;;;;3.72;2.17;;;14.50;52.80;;;;;;5115066;28;20024;-45
2022/04/27 11:06:19;;;;;;;2.50;1.60;;;14.60;52.80;;;;;;5117156;28;20459;-28
2022/04/27 11:08:45;;;;;;;2.60;1.80;;;14.70;52.80;;;;;;5116997;28;20055;-29
2022/04/27 11:11:10;;;;;;;3.28;1.90;;;14.80;52.60;;;;;;5117019;28;20055;-31
2022/04/27 11:13:37;;;;;;;5.00;1.90;;;14.90;52.40;;;;;;5117030;28;20478;-46
2022/04/27 11:16:10;;;;;;;3.08;1.60;;;15.00;52.20;;;;;;5116746;28;20024;-46
2022/04/27 11:18:57;;;;;;;2.03;1.80;;;15.10;52.00;;;;;;5116987;28;20020;-46
2022/04/27 11:21:25;;;;;;;4.10;1.70;;;15.30;51.80;;;;;;5116803;28;20015;-46
2022/04/27 11:23:51;;;;;;;2.92;1.70;;;15.40;51.70;;;;;;5116746;28;20020;-49
2022/04/27 11:26:17;;;;;;;3.10;1.52;;;15.50;51.50;;;;;;5115363;28;20368;-46
2022/04/27 11:28:44;;;;;;;3.05;1.77;;;15.60;51.40;;;;;;5116702;28;20485;-46
2022/04/27 11:31:11;;;;;;;4.82;1.70;;;15.70;51.40;;;;;;5116673;28;20019;-46
2022/04/27 11:33:40;;;;;;;2.25;1.45;;;15.80;51.20;;;;;;5116877;28;20015;-46
2022/04/27 11:36:26;;;;;;;3.60;1.58;;;15.90;50.90;;;;;;5116828;28;20478;-30
2022/04/27 11:38:53;;;;;;;2.00;1.50;;;15.90;50.50;;;;;;5115865;28;20038;-29
2022/04/27 11:41:22;;;;;;;1.73;1.17;;;15.80;50.30;;;;;;5115314;28;20051;-31
2022/04/27 11:43:49;;;;;;;4.28;1.55;;;15.90;50.20;;;;;;5116543;28;20051;-30
2022/04/27 11:46:14;;;;;;;5.68;1.63;;;15.90;50.20;;;;;;5116351;28;20035;-29
2022/04/27 11:48:45;;;;;;;6.82;2.63;;;16.00;49.90;;;;;;5116505;28;20020;-30
2022/04/27 11:51:11;;;;;;;3.22;1.80;;;16.00;48.90;;;;;;5115039;28;20402;-31
2022/04/27 11:53:48;;;;;;;2.85;1.92;;;16.00;49.20;;;;;;5116148;28;20020;-33
2022/04/27 11:56:15;;;;;;;5.38;1.85;;;16.00;49.40;;;;;;5115988;28;20333;-30
2022/04/27 11:58:41;;;;;;;2.30;1.50;;;16.10;49.40;;;;;;5116265;28;20024;-29
2022/04/27 12:01:08;;;;;;;2.85;1.50;;;16.20;49.20;;;;;;5116075;28;20046;-31
2022/04/27 12:03:43;;;;;;;1.70;1.23;;;16.30;49.00;;;;;;5116145;28;20020;-51
2022/04/27 12:06:09;;;;;;;3.10;1.75;;;16.40;48.90;;;;;;5115856;28;20024;-46
2022/04/27 12:08:41;;;;;;;3.13;1.60;;;16.60;48.80;;;;;;5116083;28;20084;-46
2022/04/27 12:11:06;;;;;;;2.95;1.50;;;16.70;48.30;;;;;;5116347;28;20016;-47
2022/04/27 12:13:34;;;;;;;3.70;1.50;;;16.70;48.50;;;;;;5115840;28;20024;-47
2022/04/27 12:16:00;;;;;;;3.10;1.70;;;16.90;48.40;;;;;;5114571;28;20023;-47
2022/04/27 12:18:27;;;;;;;5.43;1.70;;;16.90;48.00;;;;;;5115781;28;20031;-51
2022/04/27 12:20:56;;;;;;;4.03;1.30;;;17.00;48.00;;;;;;5115746;28;20099;-45
2022/04/27 12:23:34;;;;;;;2.90;1.83;;;17.10;47.90;;;;;;5115562;28;20026;-46
2022/04/27 12:26:00;;;;;;;2.33;1.77;;;17.20;47.50;;;;;;5115848;28;20043;-46
2022/04/27 12:28:30;;;;;;;2.15;1.55;;;17.30;47.40;;;;;;5115355;28;20105;-46
2022/04/27 12:30:58;;;;;;;3.50;1.52;;;17.40;47.50;;;;;;5114057;28;20176;-47
2022/04/27 12:33:35;;;;;;;2.45;1.50;;;17.50;47.20;;;;;;5115523;28;20544;-32
2022/04/27 12:39:07;;;;;;;4.30;1.50;;;17.60;46.40;;;;;;5115359;28;20039;-29
2022/04/27 12:41:34;;;;;;;2.17;1.35;;;17.60;46.40;;;;;;5114258;28;20027;-31
2022/04/27 12:44:35;;;;;;;1.88;1.30;;;17.70;46.40;;;;;;5115221;28;20011;-30
2022/04/27 12:47:04;;;;;;;2.90;1.65;;;17.80;46.10;;;;;;5115121;28;20020;-31
2022/04/27 12:49:34;;;;;;;3.15;1.40;;;17.80;46.10;;;;;;5115228;28;20098;-32
2022/04/27 12:52:16;;;;;;;2.05;1.52;;;17.90;46.00;;;;;;5114899;28;20019;-30
2022/04/27 12:54:41;;;;;;;2.95;1.50;;;18.00;45.70;;;;;;5115230;28;20094;-29
2022/04/27 12:57:07;;;;;;;2.38;1.80;;;18.00;45.40;;;;;;5113169;28;20043;-31
2022/04/27 12:59:52;;;;;;;2.85;1.58;;;18.00;45.30;;;;;;5115240;28;20035;-31
2022/04/27 13:02:17;;;;;;;2.55;1.40;;;18.00;45.40;;;;;;5114841;28;20024;-30
2022/04/27 13:04:43;;;;;;;2.10;1.63;;;18.10;45.50;;;;;;5114763;28;20024;-30
2022/04/27 13:07:09;;;;;;;5.00;2.00;;;18.30;45.20;;;;;;5114716;28;20030;-31
2022/04/27 13:12:18;;;;;;;2.75;1.83;;;18.40;44.70;;;;;;5114559;28;20347;-34
2022/04/27 13:14:44;;;;;;;1.98;1.60;;;18.40;44.70;;;;;;5114520;28;20023;-31
2022/04/27 13:17:09;;;;;;;3.40;1.70;;;18.40;44.70;;;;;;5113154;28;20523;-33
2022/04/27 13:19:35;;;;;;;2.92;2.05;;;18.50;44.50;;;;;;5114320;28;20028;-34